sensor_id;sensor_type;location;lat;lon;timestamp;pressure;altitude;pressure_sealevel;temperature;humidity
67373;BME280;54257;54.496;18.412;2023-02-02T00:01:54;98131.50;;;0.90;100.00
67373;BME280;54257;54.496;18.412;2023-02-02T00:04:28;98124.96;;;0.91;100.00
67373;BME280;54257;54.496;18.412;2023-02-02T00:06:55;98127.58;;;0.95;100.00
67373;BME280;54257;54.496;18.412;2023-02-02T00:09:26;98129.52;;;0.99;100.00
67373;BME280;54257;54.496;18.412;2023-02-02T00:11:57;98124.72;;;1.02;100.00
67373;BME280;54257;54.496;18.412;2023-02-02T00:14:25;98122.30;;;1.06;100.00
67373;BME280;54257;54.496;18.412;2023-02-02T00:16:53;98117.33;;;1.08;100.00
67373;BME280;54257;54.496;18.412;2023-02-02T00:19:23;98114.35;;;1.11;100.00
67373;BME280;54257;54.496;18.412;2023-02-02T00:21:53;98116.80;;;1.15;100.00
67373;BME280;54257;54.496;18.412;2023-02-02T00:24:20;98113.36;;;1.19;100.00
67373;BME280;54257;54.496;18.412;2023-02-02T00:26:51;98107.23;;;1.23;100.00
67373;BME280;54257;54.496;18.412;2023-02-02T00:29:20;98103.27;;;1.26;100.00
67373;BME280;54257;54.496;18.412;2023-02-02T00:31:48;98098.64;;;1.30;100.00
67373;BME280;54257;54.496;18.412;2023-02-02T00:34:15;98096.88;;;1.33;100.00
67373;BME280;54257;54.496;18.412;2023-02-02T00:36:43;98100.64;;;1.36;100.00
67373;BME280;54257;54.496;18.412;2023-02-02T00:39:21;98101.23;;;1.40;100.00
67373;BME280;54257;54.496;18.412;2023-02-02T00:41:47;98102.30;;;1.43;100.00
67373;BME280;54257;54.496;18.412;2023-02-02T00:44:14;98104.77;;;1.47;100.00
67373;BME280;54257;54.496;18.412;2023-02-02T00:46:59;98105.69;;;1.52;100.00
67373;BME280;54257;54.496;18.412;2023-02-02T00:49:26;98105.61;;;1.55;100.00
67373;BME280;54257;54.496;18.412;2023-02-02T00:51:52;98096.92;;;1.58;100.00
67373;BME280;54257;54.496;18.412;2023-02-02T00:54:19;98096.45;;;1.60;100.00
67373;BME280;54257;54.496;18.412;2023-02-02T00:56:46;98095.18;;;1.63;100.00
67373;BME280;54257;54.496;18.412;2023-02-02T00:59:12;98096.20;;;1.64;100.00
67373;BME280;54257;54.496;18.412;2023-02-02T01:01:39;98094.57;;;1.66;100.00
67373;BME280;54257;54.496;18.412;2023-02-02T01:04:06;98092.58;;;1.68;100.00
67373;BME280;54257;54.496;18.412;2023-02-02T01:06:33;98090.61;;;1.70;100.00
67373;BME280;54257;54.496;18.412;2023-02-02T01:09:00;98088.66;;;1.73;100.00
67373;BME280;54257;54.496;18.412;2023-02-02T01:11:26;98087.34;;;1.75;100.00
67373;BME280;54257;54.496;18.412;2023-02-02T01:13:53;98085.35;;;1.76;100.00
67373;BME280;54257;54.496;18.412;2023-02-02T01:16:19;98086.23;;;1.78;100.00
67373;BME280;54257;54.496;18.412;2023-02-02T01:18:49;98085.63;;;1.81;100.00
67373;BME280;54257;54.496;18.412;2023-02-02T01:21:16;98083.48;;;1.83;100.00
67373;BME280;54257;54.496;18.412;2023-02-02T01:23:42;98080.50;;;1.86;100.00
67373;BME280;54257;54.496;18.412;2023-02-02T01:26:12;98082.95;;;1.90;100.00
67373;BME280;54257;54.496;18.412;2023-02-02T01:28:39;98081.81;;;1.92;100.00
67373;BME280;54257;54.496;18.412;2023-02-02T01:31:12;98082.20;;;1.94;100.00
67373;BME280;54257;54.496;18.412;2023-02-02T01:33:40;98078.38;;;1.97;100.00
67373;BME280;54257;54.496;18.412;2023-02-02T01:36:14;98075.70;;;1.99;100.00
67373;BME280;54257;54.496;18.412;2023-02-02T01:38:41;98079.61;;;2.01;100.00
67373;BME280;54257;54.496;18.412;2023-02-02T01:41:12;98078.97;;;2.02;100.00
67373;BME280;54257;54.496;18.412;2023-02-02T01:46:19;98076.63;;;2.03;100.00
67373;BME280;54257;54.496;18.412;2023-02-02T01:48:50;98078.78;;;2.01;100.00
67373;BME280;54257;54.496;18.412;2023-02-02T01:51:21;98080.29;;;2.01;100.00
67373;BME280;54257;54.496;18.412;2023-02-02T01:53:50;98078.90;;;1.98;100.00
67373;BME280;54257;54.496;18.412;2023-02-02T01:56:23;98079.89;;;1.96;100.00
67373;BME280;54257;54.496;18.412;2023-02-02T01:58:51;98078.52;;;1.95;100.00
67373;BME280;54257;54.496;18.412;2023-02-02T02:01:18;98080.30;;;1.92;100.00
67373;BME280;54257;54.496;18.412;2023-02-02T02:03:44;98081.29;;;1.91;100.00
67373;BME280;54257;54.496;18.412;2023-02-02T02:06:16;98084.31;;;1.91;100.00
67373;BME280;54257;54.496;18.412;2023-02-02T02:08:53;98087.33;;;1.90;100.00
67373;BME280;54257;54.496;18.412;2023-02-02T02:11:22;98089.32;;;1.88;100.00
67373;BME280;54257;54.496;18.412;2023-02-02T02:13:50;98095.36;;;1.87;100.00
67373;BME280;54257;54.496;18.412;2023-02-02T02:20:57;98101.52;;;1.85;100.00
67373;BME280;54257;54.496;18.412;2023-02-02T02:37:40;98105.99;;;1.81;100.00
67373;BME280;54257;54.496;18.412;2023-02-02T02:43:09;98100.25;;;1.80;100.00
67373;BME280;54257;54.496;18.412;2023-02-02T02:45:36;98101.36;;;1.78;100.00
67373;BME280;54257;54.496;18.412;2023-02-02T02:48:04;98099.50;;;1.77;100.00
67373;BME280;54257;54.496;18.412;2023-02-02T02:50:36;98103.87;;;1.77;100.00
67373;BME280;54257;54.496;18.412;2023-02-02T02:53:13;98106.20;;;1.75;100.00
67373;BME280;54257;54.496;18.412;2023-02-02T02:56:11;98104.99;;;1.74;100.00
67373;BME280;54257;54.496;18.412;2023-02-02T02:58:54;98106.81;;;1.72;100.00
67373;BME280;54257;54.496;18.412;2023-02-02T03:01:31;98109.11;;;1.70;100.00
67373;BME280;54257;54.496;18.412;2023-02-02T03:04:09;98111.79;;;1.69;100.00
67373;BME280;54257;54.496;18.412;2023-02-02T03:06:59;98115.31;;;1.69;100.00
67373;BME280;54257;54.496;18.412;2023-02-02T03:09:30;98117.84;;;1.69;100.00
67373;BME280;54257;54.496;18.412;2023-02-02T03:12:00;98122.04;;;1.69;100.00
67373;BME280;54257;54.496;18.412;2023-02-02T03:14:26;98123.89;;;1.68;100.00
67373;BME280;54257;54.496;18.412;2023-02-02T03:16:52;98128.77;;;1.69;100.00
67373;BME280;54257;54.496;18.412;2023-02-02T03:19:20;98130.96;;;1.69;100.00
67373;BME280;54257;54.496;18.412;2023-02-02T03:21:46;98132.65;;;1.69;100.00
67373;BME280;54257;54.496;18.412;2023-02-02T03:24:13;98130.63;;;1.69;100.00
67373;BME280;54257;54.496;18.412;2023-02-02T03:26:39;98131.67;;;1.70;100.00
67373;BME280;54257;54.496;18.412;2023-02-02T03:29:05;98132.52;;;1.71;100.00
67373;BME280;54257;54.496;18.412;2023-02-02T03:31:32;98133.04;;;1.71;100.00
67373;BME280;54257;54.496;18.412;2023-02-02T03:33:58;98133.55;;;1.71;100.00
67373;BME280;54257;54.496;18.412;2023-02-02T03:36:25;98132.38;;;1.72;100.00
67373;BME280;54257;54.496;18.412;2023-02-02T03:38:51;98137.09;;;1.72;100.00
67373;BME280;54257;54.496;18.412;2023-02-02T03:41:18;98131.38;;;1.72;100.00
67373;BME280;54257;54.496;18.412;2023-02-02T03:43:44;98133.75;;;1.73;100.00
67373;BME280;54257;54.496;18.412;2023-02-02T03:46:10;98133.77;;;1.73;100.00
67373;BME280;54257;54.496;18.412;2023-02-02T03:48:38;98132.43;;;1.74;100.00
67373;BME280;54257;54.496;18.412;2023-02-02T03:51:09;98134.98;;;1.75;100.00
67373;BME280;54257;54.496;18.412;2023-02-02T03:53:37;98140.35;;;1.75;100.00
67373;BME280;54257;54.496;18.412;2023-02-02T03:56:03;98144.91;;;1.76;100.00
67373;BME280;54257;54.496;18.412;2023-02-02T03:58:30;98147.95;;;1.77;100.00
67373;BME280;54257;54.496;18.412;2023-02-02T04:01:07;98152.50;;;1.77;100.00
67373;BME280;54257;54.496;18.412;2023-02-02T04:03:36;98154.70;;;1.78;100.00
67373;BME280;54257;54.496;18.412;2023-02-02T04:06:03;98156.73;;;1.78;100.00
67373;BME280;54257;54.496;18.412;2023-02-02T04:08:29;98157.59;;;1.78;100.00
67373;BME280;54257;54.496;18.412;2023-02-02T04:10:56;98160.99;;;1.79;100.00
67373;BME280;54257;54.496;18.412;2023-02-02T04:13:22;98161.69;;;1.80;100.00
67373;BME280;54257;54.496;18.412;2023-02-02T04:15:57;98160.86;;;1.81;100.00
67373;BME280;54257;54.496;18.412;2023-02-02T04:18:24;98162.19;;;1.80;100.00
67373;BME280;54257;54.496;18.412;2023-02-02T04:20:58;98167.45;;;1.82;100.00
67373;BME280;54257;54.496;18.412;2023-02-02T04:23:25;98166.45;;;1.83;100.00
67373;BME280;54257;54.496;18.412;2023-02-02T04:25:52;98168.32;;;1.84;100.00
67373;BME280;54257;54.496;18.412;2023-02-02T04:28:19;98167.27;;;1.82;100.00
67373;BME280;54257;54.496;18.412;2023-02-02T04:30:50;98169.86;;;1.86;100.00
67373;BME280;54257;54.496;18.412;2023-02-02T04:33:18;98175.11;;;1.87;100.00
67373;BME280;54257;54.496;18.412;2023-02-02T04:35:44;98176.96;;;1.87;100.00
67373;BME280;54257;54.496;18.412;2023-02-02T04:38:11;98182.02;;;1.87;100.00
67373;BME280;54257;54.496;18.412;2023-02-02T04:40:42;98182.38;;;1.88;100.00
67373;BME280;54257;54.496;18.412;2023-02-02T04:43:10;98184.59;;;1.88;100.00
67373;BME280;54257;54.496;18.412;2023-02-02T04:45:37;98186.09;;;1.88;100.00
67373;BME280;54257;54.496;18.412;2023-02-02T04:48:04;98191.45;;;1.87;100.00
67373;BME280;54257;54.496;18.412;2023-02-02T04:50:31;98191.09;;;1.87;100.00
67373;BME280;54257;54.496;18.412;2023-02-02T04:52:57;98195.77;;;1.85;100.00
67373;BME280;54257;54.496;18.412;2023-02-02T04:55:23;98201.82;;;1.84;100.00
67373;BME280;54257;54.496;18.412;2023-02-02T04:57:50;98205.18;;;1.84;100.00
67373;BME280;54257;54.496;18.412;2023-02-02T05:00:17;98206.52;;;1.83;100.00
67373;BME280;54257;54.496;18.412;2023-02-02T05:02:43;98206.19;;;1.83;100.00
67373;BME280;54257;54.496;18.412;2023-02-02T05:05:12;98211.57;;;1.84;100.00
67373;BME280;54257;54.496;18.412;2023-02-02T05:07:39;98212.08;;;1.84;100.00
67373;BME280;54257;54.496;18.412;2023-02-02T05:10:07;98210.55;;;1.84;100.00
67373;BME280;54257;54.496;18.412;2023-02-02T05:12:35;98215.10;;;1.84;100.00
67373;BME280;54257;54.496;18.412;2023-02-02T05:15:02;98218.81;;;1.84;100.00
67373;BME280;54257;54.496;18.412;2023-02-02T05:17:30;98222.01;;;1.84;100.00
67373;BME280;54257;54.496;18.412;2023-02-02T05:19:57;98228.40;;;1.84;100.00
67373;BME280;54257;54.496;18.412;2023-02-02T05:22:24;98233.81;;;1.85;100.00
67373;BME280;54257;54.496;18.412;2023-02-02T05:24:51;98233.48;;;1.85;100.00
67373;BME280;54257;54.496;18.412;2023-02-02T05:27:17;98240.22;;;1.86;100.00
67373;BME280;54257;54.496;18.412;2023-02-02T05:29:46;98242.09;;;1.86;100.00
67373;BME280;54257;54.496;18.412;2023-02-02T05:32:13;98250.19;;;1.87;100.00
67373;BME280;54257;54.496;18.412;2023-02-02T05:34:39;98259.32;;;1.88;100.00
67373;BME280;54257;54.496;18.412;2023-02-02T05:37:05;98266.40;;;1.89;100.00
67373;BME280;54257;54.496;18.412;2023-02-02T05:39:32;98272.98;;;1.90;100.00
67373;BME280;54257;54.496;18.412;2023-02-02T05:41:58;98281.39;;;1.89;100.00
67373;BME280;54257;54.496;18.412;2023-02-02T05:44:25;98286.26;;;1.88;100.00
67373;BME280;54257;54.496;18.412;2023-02-02T05:46:51;98296.48;;;1.87;100.00
67373;BME280;54257;54.496;18.412;2023-02-02T05:49:19;98303.85;;;1.86;100.00
67373;BME280;54257;54.496;18.412;2023-02-02T05:51:47;98313.73;;;1.84;100.00
67373;BME280;54257;54.496;18.412;2023-02-02T05:54:15;98321.94;;;1.82;100.00
67373;BME280;54257;54.496;18.412;2023-02-02T05:56:46;98334.84;;;1.80;100.00
67373;BME280;54257;54.496;18.412;2023-02-02T05:59:13;98343.34;;;1.76;100.00
67373;BME280;54257;54.496;18.412;2023-02-02T06:01:40;98355.25;;;1.75;100.00
67373;BME280;54257;54.496;18.412;2023-02-02T06:04:07;98359.25;;;1.73;100.00
67373;BME280;54257;54.496;18.412;2023-02-02T06:06:35;98369.95;;;1.70;100.00
67373;BME280;54257;54.496;18.412;2023-02-02T06:09:04;98377.02;;;1.64;100.00
67373;BME280;54257;54.496;18.412;2023-02-02T06:11:31;98385.73;;;1.56;100.00
67373;BME280;54257;54.496;18.412;2023-02-02T06:13:57;98385.39;;;1.49;100.00
67373;BME280;54257;54.496;18.412;2023-02-02T06:16:24;98390.59;;;1.43;100.00
67373;BME280;54257;54.496;18.412;2023-02-02T06:18:50;98395.70;;;1.38;100.00
67373;BME280;54257;54.496;18.412;2023-02-02T06:21:17;98400.11;;;1.34;100.00
67373;BME280;54257;54.496;18.412;2023-02-02T06:23:44;98405.02;;;1.29;100.00
67373;BME280;54257;54.496;18.412;2023-02-02T06:26:12;98410.80;;;1.25;100.00
67373;BME280;54257;54.496;18.412;2023-02-02T06:28:39;98417.08;;;1.22;100.00
67373;BME280;54257;54.496;18.412;2023-02-02T06:31:09;98421.52;;;1.18;100.00
67373;BME280;54257;54.496;18.412;2023-02-02T06:33:36;98427.49;;;1.15;100.00
67373;BME280;54257;54.496;18.412;2023-02-02T06:36:05;98434.28;;;1.12;100.00
67373;BME280;54257;54.496;18.412;2023-02-02T06:38:32;98441.80;;;1.10;100.00
67373;BME280;54257;54.496;18.412;2023-02-02T06:40:59;98449.86;;;1.09;100.00
67373;BME280;54257;54.496;18.412;2023-02-02T06:43:28;98455.27;;;1.11;100.00
67373;BME280;54257;54.496;18.412;2023-02-02T06:45:58;98461.81;;;1.10;100.00
67373;BME280;54257;54.496;18.412;2023-02-02T06:48:26;98468.01;;;1.09;100.00
67373;BME280;54257;54.496;18.412;2023-02-02T06:50:52;98473.01;;;1.08;100.00
67373;BME280;54257;54.496;18.412;2023-02-02T06:53:20;98479.22;;;1.07;100.00
67373;BME280;54257;54.496;18.412;2023-02-02T06:55:54;98487.78;;;1.07;100.00
67373;BME280;54257;54.496;18.412;2023-02-02T06:58:21;98493.16;;;1.07;100.00
67373;BME280;54257;54.496;18.412;2023-02-02T07:00:48;98499.02;;;1.06;100.00
67373;BME280;54257;54.496;18.412;2023-02-02T07:03:15;98501.02;;;1.05;100.00
67373;BME280;54257;54.496;18.412;2023-02-02T07:05:42;98511.48;;;1.07;100.00
67373;BME280;54257;54.496;18.412;2023-02-02T07:08:08;98516.70;;;1.07;100.00
67373;BME280;54257;54.496;18.412;2023-02-02T07:10:38;98520.73;;;1.07;100.00
67373;BME280;54257;54.496;18.412;2023-02-02T07:13:04;98529.13;;;1.07;100.00
67373;BME280;54257;54.496;18.412;2023-02-02T07:15:33;98533.50;;;1.07;100.00
67373;BME280;54257;54.496;18.412;2023-02-02T07:18:00;98542.09;;;1.07;100.00
67373;BME280;54257;54.496;18.412;2023-02-02T07:20:27;98549.00;;;1.08;100.00
67373;BME280;54257;54.496;18.412;2023-02-02T07:22:53;98559.77;;;1.08;100.00
67373;BME280;54257;54.496;18.412;2023-02-02T07:25:20;98564.32;;;1.09;100.00
67373;BME280;54257;54.496;18.412;2023-02-02T07:27:46;98569.90;;;1.10;100.00
67373;BME280;54257;54.496;18.412;2023-02-02T07:30:17;98572.77;;;1.10;100.00
67373;BME280;54257;54.496;18.412;2023-02-02T07:32:48;98577.69;;;1.11;100.00
67373;BME280;54257;54.496;18.412;2023-02-02T07:35:16;98582.93;;;1.13;100.00
67373;BME280;54257;54.496;18.412;2023-02-02T07:37:42;98593.44;;;1.15;100.00
67373;BME280;54257;54.496;18.412;2023-02-02T07:40:09;98600.70;;;1.17;100.00
67373;BME280;54257;54.496;18.412;2023-02-02T07:42:36;98606.65;;;1.19;100.00
67373;BME280;54257;54.496;18.412;2023-02-02T07:45:02;98609.06;;;1.21;100.00
67373;BME280;54257;54.496;18.412;2023-02-02T07:47:30;98614.49;;;1.22;100.00
67373;BME280;54257;54.496;18.412;2023-02-02T07:49:56;98621.32;;;1.25;100.00
67373;BME280;54257;54.496;18.412;2023-02-02T07:52:22;98629.44;;;1.27;100.00
67373;BME280;54257;54.496;18.412;2023-02-02T07:54:49;98635.58;;;1.29;100.00
67373;BME280;54257;54.496;18.412;2023-02-02T07:57:18;98643.73;;;1.32;100.00
67373;BME280;54257;54.496;18.412;2023-02-02T07:59:44;98652.74;;;1.35;100.00
67373;BME280;54257;54.496;18.412;2023-02-02T08:02:10;98656.85;;;1.37;100.00
67373;BME280;54257;54.496;18.412;2023-02-02T08:04:36;98654.42;;;1.40;100.00
67373;BME280;54257;54.496;18.412;2023-02-02T08:07:03;98656.02;;;1.44;100.00
67373;BME280;54257;54.496;18.412;2023-02-02T08:09:29;98661.39;;;1.48;100.00
67373;BME280;54257;54.496;18.412;2023-02-02T08:11:57;98665.23;;;1.52;100.00
67373;BME280;54257;54.496;18.412;2023-02-02T08:14:28;98675.24;;;1.55;100.00
67373;BME280;54257;54.496;18.412;2023-02-02T08:16:54;98686.13;;;1.59;100.00
67373;BME280;54257;54.496;18.412;2023-02-02T08:19:21;98697.70;;;1.63;100.00
67373;BME280;54257;54.496;18.412;2023-02-02T08:21:47;98710.08;;;1.65;100.00
67373;BME280;54257;54.496;18.412;2023-02-02T08:24:13;98722.32;;;1.65;100.00
67373;BME280;54257;54.496;18.412;2023-02-02T08:26:40;98726.54;;;1.60;100.00
67373;BME280;54257;54.496;18.412;2023-02-02T08:29:07;98729.41;;;1.55;100.00
67373;BME280;54257;54.496;18.412;2023-02-02T08:31:38;98738.23;;;1.52;100.00
67373;BME280;54257;54.496;18.412;2023-02-02T08:34:08;98742.73;;;1.50;100.00
67373;BME280;54257;54.496;18.412;2023-02-02T08:36:35;98749.35;;;1.53;100.00
67373;BME280;54257;54.496;18.412;2023-02-02T08:39:05;98753.63;;;1.55;100.00
67373;BME280;54257;54.496;18.412;2023-02-02T08:41:32;98759.62;;;1.57;100.00
67373;BME280;54257;54.496;18.412;2023-02-02T08:43:59;98762.58;;;1.61;100.00
67373;BME280;54257;54.496;18.412;2023-02-02T08:46:26;98767.14;;;1.66;100.00
67373;BME280;54257;54.496;18.412;2023-02-02T08:48:52;98772.85;;;1.72;100.00
67373;BME280;54257;54.496;18.412;2023-02-02T08:51:18;98777.34;;;1.75;100.00
67373;BME280;54257;54.496;18.412;2023-02-02T08:53:46;98780.78;;;1.78;100.00
67373;BME280;54257;54.496;18.412;2023-02-02T08:56:17;98786.79;;;1.81;100.00
67373;BME280;54257;54.496;18.412;2023-02-02T08:58:50;98790.63;;;1.85;100.00
67373;BME280;54257;54.496;18.412;2023-02-02T09:01:19;98788.40;;;1.89;100.00
67373;BME280;54257;54.496;18.412;2023-02-02T09:03:47;98795.89;;;1.92;100.00
67373;BME280;54257;54.496;18.412;2023-02-02T09:06:18;98802.18;;;1.94;100.00
67373;BME280;54257;54.496;18.412;2023-02-02T09:08:45;98806.12;;;1.95;100.00
67373;BME280;54257;54.496;18.412;2023-02-02T09:11:14;98807.56;;;1.99;100.00
67373;BME280;54257;54.496;18.412;2023-02-02T09:13:44;98809.86;;;2.02;100.00
67373;BME280;54257;54.496;18.412;2023-02-02T09:16:12;98816.83;;;2.10;100.00
67373;BME280;54257;54.496;18.412;2023-02-02T09:18:40;98816.73;;;2.17;100.00
67373;BME280;54257;54.496;18.412;2023-02-02T09:21:09;98822.74;;;2.26;100.00
67373;BME280;54257;54.496;18.412;2023-02-02T09:23:37;98829.64;;;2.32;100.00
67373;BME280;54257;54.496;18.412;2023-02-02T09:26:30;98836.39;;;2.32;100.00
67373;BME280;54257;54.496;18.412;2023-02-02T09:28:59;98846.13;;;2.31;100.00
67373;BME280;54257;54.496;18.412;2023-02-02T09:31:32;98849.54;;;2.27;100.00
67373;BME280;54257;54.496;18.412;2023-02-02T09:34:01;98858.27;;;2.26;100.00
67373;BME280;54257;54.496;18.412;2023-02-02T09:36:28;98863.65;;;2.26;100.00
67373;BME280;54257;54.496;18.412;2023-02-02T09:38:54;98865.66;;;2.25;100.00
67373;BME280;54257;54.496;18.412;2023-02-02T09:41:53;98874.09;;;2.26;100.00
67373;BME280;54257;54.496;18.412;2023-02-02T09:50:33;98884.69;;;2.41;100.00
67373;BME280;54257;54.496;18.412;2023-02-02T09:53:09;98888.71;;;2.45;100.00
67373;BME280;54257;54.496;18.412;2023-02-02T09:55:42;98893.41;;;2.51;100.00
67373;BME280;54257;54.496;18.412;2023-02-02T09:58:18;98894.79;;;2.57;100.00
67373;BME280;54257;54.496;18.412;2023-02-02T10:03:29;98910.71;;;2.65;100.00
67373;BME280;54257;54.496;18.412;2023-02-02T10:06:41;98916.96;;;2.65;100.00
67373;BME280;54257;54.496;18.412;2023-02-02T10:09:29;98923.88;;;2.71;100.00
67373;BME280;54257;54.496;18.412;2023-02-02T10:14:53;98948.88;;;2.62;100.00
67373;BME280;54257;54.496;18.412;2023-02-02T10:17:53;98951.09;;;2.46;100.00
67373;BME280;54257;54.496;18.412;2023-02-02T10:28:51;98960.59;;;2.23;100.00
67373;BME280;54257;54.496;18.412;2023-02-02T10:31:35;98965.63;;;2.22;100.00
67373;BME280;54257;54.496;18.412;2023-02-02T10:34:20;98967.41;;;2.20;100.00
67373;BME280;54257;54.496;18.412;2023-02-02T10:40:02;98982.79;;;2.21;100.00
67373;BME280;54257;54.496;18.412;2023-02-02T10:45:13;98985.20;;;2.23;100.00
67373;BME280;54257;54.496;18.412;2023-02-02T10:47:40;98987.74;;;2.29;100.00
67373;BME280;54257;54.496;18.412;2023-02-02T10:52:44;98993.88;;;2.73;100.00
67373;BME280;54257;54.496;18.412;2023-02-02T10:58:22;98998.88;;;3.03;100.00
67373;BME280;54257;54.496;18.412;2023-02-02T11:00:54;99005.16;;;3.21;100.00
67373;BME280;54257;54.496;18.412;2023-02-02T11:03:24;99006.59;;;3.29;100.00
67373;BME280;54257;54.496;18.412;2023-02-02T11:05:57;99011.88;;;3.31;100.00
67373;BME280;54257;54.496;18.412;2023-02-02T11:08:46;99013.54;;;3.30;100.00
67373;BME280;54257;54.496;18.412;2023-02-02T11:11:43;99019.20;;;3.28;100.00
67373;BME280;54257;54.496;18.412;2023-02-02T11:14:15;99026.45;;;3.22;100.00
67373;BME280;54257;54.496;18.412;2023-02-02T11:16:44;99032.08;;;3.19;100.00
67373;BME280;54257;54.496;18.412;2023-02-02T11:21:49;99042.86;;;3.01;99.64
67373;BME280;54257;54.496;18.412;2023-02-02T11:24:51;99047.33;;;2.93;99.81
67373;BME280;54257;54.496;18.412;2023-02-02T11:29:56;99064.29;;;2.86;100.00
67373;BME280;54257;54.496;18.412;2023-02-02T11:37:36;99078.48;;;2.72;99.70
67373;BME280;54257;54.496;18.412;2023-02-02T11:42:58;99086.89;;;2.66;99.67
67373;BME280;54257;54.496;18.412;2023-02-02T11:45:33;99093.06;;;2.64;99.92
67373;BME280;54257;54.496;18.412;2023-02-02T11:48:26;99103.40;;;2.70;100.00
67373;BME280;54257;54.496;18.412;2023-02-02T11:50:55;99104.06;;;2.70;99.88
67373;BME280;54257;54.496;18.412;2023-02-02T11:53:41;99107.14;;;2.62;99.37
67373;BME280;54257;54.496;18.412;2023-02-02T11:56:22;99116.21;;;2.51;99.04
67373;BME280;54257;54.496;18.412;2023-02-02T11:58:55;99124.06;;;2.39;98.55
67373;BME280;54257;54.496;18.412;2023-02-02T12:01:32;99133.73;;;2.27;98.58
67373;BME280;54257;54.496;18.412;2023-02-02T12:04:22;99138.19;;;2.15;98.36
67373;BME280;54257;54.496;18.412;2023-02-02T12:06:49;99145.30;;;1.98;98.20
67373;BME280;54257;54.496;18.412;2023-02-02T12:09:19;99142.70;;;1.82;98.23
67373;BME280;54257;54.496;18.412;2023-02-02T12:14:46;99153.61;;;1.60;98.79
67373;BME280;54257;54.496;18.412;2023-02-02T12:34:28;99180.95;;;1.12;100.00
67373;BME280;54257;54.496;18.412;2023-02-02T12:39:56;99184.75;;;1.10;100.00
67373;BME280;54257;54.496;18.412;2023-02-02T12:48:09;99201.22;;;1.05;100.00
67373;BME280;54257;54.496;18.412;2023-02-02T12:56:27;99219.08;;;1.06;100.00
67373;BME280;54257;54.496;18.412;2023-02-02T13:07:33;99238.55;;;1.42;100.00
67373;BME280;54257;54.496;18.412;2023-02-02T13:12:44;99247.16;;;1.47;100.00
67373;BME280;54257;54.496;18.412;2023-02-02T13:15:15;99260.80;;;1.47;100.00
67373;BME280;54257;54.496;18.412;2023-02-02T13:17:48;99270.11;;;1.45;100.00
67373;BME280;54257;54.496;18.412;2023-02-02T13:23:12;99282.96;;;1.42;100.00
67373;BME280;54257;54.496;18.412;2023-02-02T13:25:48;99290.90;;;1.43;100.00
67373;BME280;54257;54.496;18.412;2023-02-02T13:28:37;99291.65;;;1.45;100.00
67373;BME280;54257;54.496;18.412;2023-02-02T13:31:02;99295.52;;;1.48;100.00
67373;BME280;54257;54.496;18.412;2023-02-02T13:33:32;99303.00;;;1.58;100.00
67373;BME280;54257;54.496;18.412;2023-02-02T13:38:53;99315.20;;;1.61;100.00
67373;BME280;54257;54.496;18.412;2023-02-02T13:41:22;99319.79;;;1.57;100.00
67373;BME280;54257;54.496;18.412;2023-02-02T13:46:20;99332.01;;;1.52;100.00
67373;BME280;54257;54.496;18.412;2023-02-02T13:54:46;99360.08;;;1.47;100.00
67373;BME280;54257;54.496;18.412;2023-02-02T14:01:55;99376.84;;;1.46;100.00
67373;BME280;54257;54.496;18.412;2023-02-02T14:04:26;99384.84;;;1.48;100.00
67373;BME280;54257;54.496;18.412;2023-02-02T14:06:54;99396.48;;;1.49;100.00
67373;BME280;54257;54.496;18.412;2023-02-02T14:09:23;99399.11;;;1.47;100.00
67373;BME280;54257;54.496;18.412;2023-02-02T14:11:55;99410.82;;;1.46;100.00
67373;BME280;54257;54.496;18.412;2023-02-02T14:14:27;99422.09;;;1.42;100.00
67373;BME280;54257;54.496;18.412;2023-02-02T14:16:58;99432.52;;;1.38;100.00
67373;BME280;54257;54.496;18.412;2023-02-02T14:24:40;99448.22;;;1.21;100.00
67373;BME280;54257;54.496;18.412;2023-02-02T14:29:35;99464.96;;;1.15;100.00
67373;BME280;54257;54.496;18.412;2023-02-02T14:34:40;99476.27;;;1.05;100.00
67373;BME280;54257;54.496;18.412;2023-02-02T14:45:33;99504.20;;;0.98;100.00
67373;BME280;54257;54.496;18.412;2023-02-02T14:48:07;99507.92;;;0.95;100.00
67373;BME280;54257;54.496;18.412;2023-02-02T14:50:55;99516.10;;;0.94;100.00
67373;BME280;54257;54.496;18.412;2023-02-02T14:56:04;99523.96;;;0.93;100.00
67373;BME280;54257;54.496;18.412;2023-02-02T14:58:36;99533.17;;;0.92;100.00
67373;BME280;54257;54.496;18.412;2023-02-02T15:19:38;99584.42;;;0.85;100.00
67373;BME280;54257;54.496;18.412;2023-02-02T15:22:16;99592.09;;;0.83;100.00
67373;BME280;54257;54.496;18.412;2023-02-02T15:24:48;99603.36;;;0.80;100.00
67373;BME280;54257;54.496;18.412;2023-02-02T15:27:16;99612.31;;;0.78;100.00
67373;BME280;54257;54.496;18.412;2023-02-02T15:29:44;99614.27;;;0.77;100.00
67373;BME280;54257;54.496;18.412;2023-02-02T15:32:14;99617.19;;;0.75;100.00
67373;BME280;54257;54.496;18.412;2023-02-02T15:34:49;99632.13;;;0.71;100.00
67373;BME280;54257;54.496;18.412;2023-02-02T15:37:18;99637.27;;;0.66;100.00
67373;BME280;54257;54.496;18.412;2023-02-02T15:39:46;99643.61;;;0.62;100.00
67373;BME280;54257;54.496;18.412;2023-02-02T15:42:18;99654.20;;;0.59;100.00
67373;BME280;54257;54.496;18.412;2023-02-02T15:45:05;99662.04;;;0.54;100.00
67373;BME280;54257;54.496;18.412;2023-02-02T15:47:34;99671.15;;;0.51;100.00
67373;BME280;54257;54.496;18.412;2023-02-02T15:50:03;99672.39;;;0.49;100.00
67373;BME280;54257;54.496;18.412;2023-02-02T15:52:44;99680.81;;;0.47;100.00
67373;BME280;54257;54.496;18.412;2023-02-02T15:55:20;99688.75;;;0.45;100.00
67373;BME280;54257;54.496;18.412;2023-02-02T15:57:48;99694.57;;;0.43;100.00
67373;BME280;54257;54.496;18.412;2023-02-02T16:00:26;99704.42;;;0.42;100.00